Time;durP1;ratioP1;P1;durP2;ratioP2;P2;SDS_P1;SDS_P2;PMS_P1;PMS_P2;Temp;Humidity;BMP_temperature;BMP_pressure;BME280_temperature;BME280_humidity;BME280_pressure;Samples;Min_cycle;Max_cycle;Signal;HPM_P1;HPM_P2
2022/02/14 00:01:22;;;;;;;10.98;9.88;;;;;;;;;;5034534;28;24464;-59
2022/02/14 00:03:48;;;;;;;12.50;11.30;;;;;;;;;;5031291;28;24577;-58
2022/02/14 00:06:13;;;;;;;11.00;9.90;;;;;;;;;;5032835;28;24412;-59
2022/02/14 00:08:38;;;;;;;11.70;10.50;;;;;;;;;;5035835;28;24416;-58
2022/02/14 00:11:03;;;;;;;12.17;10.63;;;;;;;;;;5037048;28;24419;-58
2022/02/14 00:13:28;;;;;;;13.23;11.60;;;;;;;;;;5031909;28;24551;-58
2022/02/14 00:15:53;;;;;;;12.80;11.50;;;;;;;;;;5032560;28;24831;-58
2022/02/14 00:18:19;;;;;;;11.87;10.67;;;;;;;;;;5039899;28;24529;-57
2022/02/14 00:20:44;;;;;;;11.50;10.30;;;;;;;;;;5031190;28;24438;-58
2022/02/14 00:23:09;;;;;;;11.47;10.37;;;;;;;;;;5039628;28;24408;-58
2022/02/14 00:25:34;;;;;;;11.90;10.60;;;;;;;;;;5037591;28;24412;-57
2022/02/14 00:27:59;;;;;;;10.85;9.85;;;;;;;;;;5028105;28;24414;-57
2022/02/14 00:30:25;;;;;;;11.80;10.60;;;;;;;;;;5028567;28;24829;-57
2022/02/14 00:32:50;;;;;;;11.20;10.03;;;;;;;;;;5032281;28;24422;-57
2022/02/14 00:35:15;;;;;;;10.80;9.70;;;;;;;;;;5034845;28;24498;-57
2022/02/14 00:37:41;;;;;;;12.27;10.10;;;;;;;;;;5028344;28;24415;-57
2022/02/14 00:40:06;;;;;;;11.60;10.40;;;;;;;;;;5028425;28;24471;-58
2022/02/14 00:42:32;;;;;;;12.43;9.98;;;;;;;;;;5036790;28;24411;-59
2022/02/14 00:44:57;;;;;;;10.60;9.50;;;;;;;;;;5040071;28;24779;-58
2022/02/14 00:47:22;;;;;;;10.77;9.67;;;;;;;;;;5032703;28;24407;-58
2022/02/14 00:49:47;;;;;;;11.73;10.20;;;;;;;;;;5037340;28;24411;-58
2022/02/14 00:52:12;;;;;;;10.70;9.60;;;;;;;;;;5039826;28;24461;-58
2022/02/14 00:54:37;;;;;;;9.93;8.93;;;;;;;;;;5044343;28;24507;-58
2022/02/14 00:57:03;;;;;;;12.50;10.07;;;;;;;;;;5031196;28;24416;-58
2022/02/14 00:59:28;;;;;;;11.70;10.45;;;;;;;;;;5029071;28;25170;-58
2022/02/14 01:01:53;;;;;;;11.17;10.07;;;;;;;;;;5030163;28;24432;-58
2022/02/14 01:04:18;;;;;;;10.10;9.10;;;;;;;;;;5037000;28;24966;-57
2022/02/14 01:06:43;;;;;;;11.63;9.77;;;;;;;;;;5033310;28;24980;-57
2022/02/14 01:09:10;;;;;;;10.68;9.57;;;;;;;;;;5041752;28;24403;-57
2022/02/14 01:11:35;;;;;;;11.85;9.95;;;;;;;;;;5030922;28;24820;-57
2022/02/14 01:14:00;;;;;;;12.90;10.23;;;;;;;;;;5041143;28;24506;-58
2022/02/14 01:16:25;;;;;;;10.27;9.25;;;;;;;;;;5033451;28;24996;-59
2022/02/14 01:18:50;;;;;;;11.27;10.07;;;;;;;;;;5034293;28;24439;-59
2022/02/14 01:21:16;;;;;;;9.95;8.77;;;;;;;;;;5030820;28;24555;-58
2022/02/14 01:23:41;;;;;;;10.40;9.30;;;;;;;;;;5033819;28;24490;-58
2022/02/14 01:26:06;;;;;;;10.70;9.60;;;;;;;;;;5039986;28;25023;-58
2022/02/14 01:28:31;;;;;;;10.20;9.10;;;;;;;;;;5031470;28;24408;-58
2022/02/14 01:30:56;;;;;;;10.70;9.20;;;;;;;;;;5033692;28;24458;-58
2022/02/14 01:33:21;;;;;;;11.33;9.20;;;;;;;;;;5037462;28;24969;-58
2022/02/14 01:35:47;;;;;;;12.43;10.27;;;;;;;;;;5027393;28;24621;-57
2022/02/14 01:38:12;;;;;;;11.40;9.50;;;;;;;;;;5031247;28;24420;-59
2022/02/14 01:40:37;;;;;;;11.00;9.20;;;;;;;;;;5036216;28;24519;-59
2022/02/14 01:43:03;;;;;;;10.47;9.37;;;;;;;;;;5037696;28;24962;-59
2022/02/14 01:45:28;;;;;;;10.40;9.20;;;;;;;;;;5039407;28;24407;-59
2022/02/14 01:47:53;;;;;;;10.13;9.10;;;;;;;;;;5030786;28;24937;-59
2022/02/14 01:50:18;;;;;;;11.20;10.03;;;;;;;;;;5044229;28;25094;-59
2022/02/14 01:52:44;;;;;;;10.80;9.70;;;;;;;;;;5038226;28;24485;-59
2022/02/14 01:55:10;;;;;;;10.43;9.43;;;;;;;;;;5042646;28;24414;-59
2022/02/14 01:57:35;;;;;;;10.95;9.23;;;;;;;;;;5041491;28;24473;-59
2022/02/14 02:00:02;;;;;;;10.50;9.40;;;;;;;;;;5029256;28;24802;-57
2022/02/14 02:02:27;;;;;;;10.98;9.18;;;;;;;;;;5028847;28;24424;-58
2022/02/14 02:04:52;;;;;;;12.18;9.18;;;;;;;;;;5032589;28;24847;-58
2022/02/14 02:07:17;;;;;;;10.30;9.07;;;;;;;;;;5039235;28;24461;-58
2022/02/14 02:09:43;;;;;;;10.70;9.60;;;;;;;;;;5037308;28;24823;-58
2022/02/14 02:12:24;;;;;;;10.48;9.38;;;;;;;;;;5027210;28;24419;-58
2022/02/14 02:14:51;;;;;;;11.25;10.15;;;;;;;;;;5030096;28;24443;-58
2022/02/14 02:17:16;;;;;;;11.20;10.00;;;;;;;;;;5028594;28;24411;-58
2022/02/14 02:19:41;;;;;;;11.03;9.97;;;;;;;;;;5036627;28;24781;-58
2022/02/14 02:22:06;;;;;;;11.20;10.10;;;;;;;;;;5033519;28;24542;-57
2022/02/14 02:24:51;;;;;;;10.77;9.67;;;;;;;;;;5032929;28;25009;-59
2022/02/14 02:27:17;;;;;;;10.70;9.70;;;;;;;;;;5038655;28;24438;-58
2022/02/14 02:29:43;;;;;;;10.32;9.25;;;;;;;;;;5031641;28;24570;-58
2022/02/14 02:32:08;;;;;;;11.53;10.33;;;;;;;;;;5032347;28;24637;-58
2022/02/14 02:34:34;;;;;;;11.70;10.00;;;;;;;;;;5026819;28;24424;-59
2022/02/14 02:36:59;;;;;;;11.00;9.90;;;;;;;;;;5040468;28;24484;-58
2022/02/14 02:39:25;;;;;;;11.68;10.20;;;;;;;;;;5043193;28;24453;-59
2022/02/14 02:41:50;;;;;;;10.93;9.82;;;;;;;;;;5039372;28;24767;-58
2022/02/14 02:44:16;;;;;;;10.50;9.40;;;;;;;;;;5027924;28;24419;-58
2022/02/14 02:46:41;;;;;;;10.93;9.93;;;;;;;;;;5028221;28;24929;-58
2022/02/14 02:49:17;;;;;;;10.77;9.77;;;;;;;;;;5034246;28;24923;-58
2022/02/14 02:51:43;;;;;;;11.13;10.03;;;;;;;;;;5025823;28;24416;-58
2022/02/14 02:54:09;;;;;;;10.77;9.68;;;;;;;;;;5031346;28;24965;-58
2022/02/14 02:56:35;;;;;;;10.43;9.45;;;;;;;;;;5028334;28;24458;-58
2022/02/14 02:59:00;;;;;;;10.65;9.65;;;;;;;;;;5034123;28;25170;-58
2022/02/14 03:01:25;;;;;;;11.38;10.20;;;;;;;;;;5025628;28;24444;-58
2022/02/14 03:03:52;;;;;;;10.97;9.97;;;;;;;;;;5027672;28;25278;-58
2022/02/14 03:06:18;;;;;;;10.90;9.90;;;;;;;;;;5035036;28;24426;-57
2022/02/14 03:08:43;;;;;;;13.20;10.80;;;;;;;;;;5045295;28;24456;-58
2022/02/14 03:11:08;;;;;;;10.77;9.67;;;;;;;;;;5037629;28;24921;-57
2022/02/14 03:13:33;;;;;;;11.00;9.80;;;;;;;;;;5040558;28;24542;-58
2022/02/14 03:15:58;;;;;;;12.07;10.32;;;;;;;;;;5034013;28;24412;-58
2022/02/14 03:18:24;;;;;;;11.20;10.00;;;;;;;;;;5031947;28;24465;-58
2022/02/14 03:20:49;;;;;;;11.32;10.23;;;;;;;;;;5032706;28;24462;-58
2022/02/14 03:23:14;;;;;;;11.27;10.17;;;;;;;;;;5040282;28;24934;-58
2022/02/14 03:25:39;;;;;;;11.35;10.25;;;;;;;;;;5038610;28;24507;-58
2022/02/14 03:28:04;;;;;;;11.30;10.20;;;;;;;;;;5036017;28;24430;-58
2022/02/14 03:30:29;;;;;;;11.40;10.20;;;;;;;;;;5032456;28;24770;-58
2022/02/14 03:32:55;;;;;;;11.00;9.80;;;;;;;;;;5034480;28;24423;-58
2022/02/14 03:35:20;;;;;;;10.77;9.67;;;;;;;;;;5037539;28;25054;-57
2022/02/14 03:37:45;;;;;;;11.10;9.90;;;;;;;;;;5037502;28;24411;-58
2022/02/14 03:40:10;;;;;;;10.73;9.63;;;;;;;;;;5030533;28;24443;-58
2022/02/14 03:42:36;;;;;;;11.07;9.88;;;;;;;;;;5039844;28;24439;-58
2022/02/14 03:45:01;;;;;;;10.03;9.03;;;;;;;;;;5029438;28;24411;-58
2022/02/14 03:47:26;;;;;;;10.00;9.10;;;;;;;;;;5033047;28;24408;-58
2022/02/14 03:49:51;;;;;;;10.77;9.67;;;;;;;;;;5031789;28;24478;-58
2022/02/14 03:52:17;;;;;;;9.40;8.50;;;;;;;;;;5039986;28;24490;-58
2022/02/14 03:54:42;;;;;;;10.37;9.43;;;;;;;;;;5044569;28;24443;-58
2022/02/14 03:57:07;;;;;;;10.77;9.73;;;;;;;;;;5040304;28;24443;-58
2022/02/14 03:59:33;;;;;;;10.18;9.18;;;;;;;;;;5031484;28;24415;-58
2022/02/14 04:01:58;;;;;;;10.40;9.50;;;;;;;;;;5032420;28;24428;-58
2022/02/14 04:04:23;;;;;;;11.18;9.95;;;;;;;;;;5044364;28;24461;-57
2022/02/14 04:06:48;;;;;;;10.20;9.20;;;;;;;;;;5038691;28;24474;-57
2022/02/14 04:09:13;;;;;;;10.50;9.50;;;;;;;;;;5035200;28;25014;-56
2022/02/14 04:11:38;;;;;;;10.80;9.70;;;;;;;;;;5032508;28;24497;-57
2022/02/14 04:14:03;;;;;;;10.82;9.65;;;;;;;;;;5039991;28;24426;-57
2022/02/14 04:16:29;;;;;;;10.00;9.10;;;;;;;;;;5043662;28;24981;-57
2022/02/14 04:18:54;;;;;;;10.77;9.68;;;;;;;;;;5035617;28;24401;-57
2022/02/14 04:21:19;;;;;;;10.40;9.30;;;;;;;;;;5031632;28;24435;-57
2022/02/14 04:23:44;;;;;;;10.52;9.52;;;;;;;;;;5034935;28;25334;-58
2022/02/14 04:26:09;;;;;;;10.20;9.20;;;;;;;;;;5035557;28;25005;-57
2022/02/14 04:28:34;;;;;;;10.53;9.53;;;;;;;;;;5034204;28;24415;-58
2022/02/14 04:31:00;;;;;;;10.27;9.27;;;;;;;;;;5037744;28;24446;-58
2022/02/14 04:33:25;;;;;;;11.25;10.00;;;;;;;;;;5034681;28;24872;-57
2022/02/14 04:35:50;;;;;;;11.77;10.45;;;;;;;;;;5044278;28;24453;-57
2022/02/14 04:38:15;;;;;;;11.10;9.68;;;;;;;;;;5033897;28;24427;-58
2022/02/14 04:40:40;;;;;;;10.90;9.80;;;;;;;;;;5037268;28;24758;-58
2022/02/14 04:43:07;;;;;;;10.88;9.77;;;;;;;;;;5033490;28;21291;-58
2022/02/14 04:45:33;;;;;;;10.98;9.88;;;;;;;;;;5027789;28;24418;-58
2022/02/14 04:47:58;;;;;;;11.43;10.23;;;;;;;;;;5029771;28;24543;-57
2022/02/14 04:50:24;;;;;;;11.07;9.97;;;;;;;;;;5033599;28;24469;-57
2022/02/14 04:52:50;;;;;;;10.93;9.83;;;;;;;;;;5038500;28;24757;-57
2022/02/14 04:55:15;;;;;;;10.20;9.20;;;;;;;;;;5032278;28;25021;-57
2022/02/14 04:57:40;;;;;;;11.07;10.07;;;;;;;;;;5039196;28;24992;-58
2022/02/14 05:00:06;;;;;;;11.43;10.23;;;;;;;;;;5033669;28;24430;-58
2022/02/14 05:02:31;;;;;;;10.63;9.52;;;;;;;;;;5027937;28;25032;-58
2022/02/14 05:04:56;;;;;;;11.20;10.10;;;;;;;;;;5030100;28;24443;-58
2022/02/14 05:07:22;;;;;;;11.00;9.77;;;;;;;;;;5031089;28;24633;-57
2022/02/14 05:09:47;;;;;;;11.02;10.00;;;;;;;;;;5038433;28;24451;-58
2022/02/14 05:12:12;;;;;;;11.45;10.05;;;;;;;;;;5036359;28;24571;-58
2022/02/14 05:14:37;;;;;;;11.02;9.93;;;;;;;;;;5032644;28;24419;-59
2022/02/14 05:17:02;;;;;;;10.83;9.73;;;;;;;;;;5036067;28;24415;-58
2022/02/14 05:19:27;;;;;;;11.93;10.70;;;;;;;;;;5029593;28;25004;-58
2022/02/14 05:21:53;;;;;;;11.00;9.88;;;;;;;;;;5038791;28;24497;-59
2022/02/14 05:24:18;;;;;;;11.37;10.27;;;;;;;;;;5037174;28;24404;-58
2022/02/14 05:26:43;;;;;;;11.02;10.02;;;;;;;;;;5036929;28;24522;-58
2022/02/14 05:29:08;;;;;;;11.82;9.93;;;;;;;;;;5044925;28;24778;-58
2022/02/14 05:31:33;;;;;;;11.35;9.40;;;;;;;;;;5032996;28;24423;-58
2022/02/14 05:33:59;;;;;;;10.48;9.43;;;;;;;;;;5026983;28;24420;-57
2022/02/14 05:36:24;;;;;;;11.15;10.00;;;;;;;;;;5035753;28;24882;-57
2022/02/14 05:38:50;;;;;;;10.07;9.10;;;;;;;;;;5056403;28;24998;-59
2022/02/14 05:41:15;;;;;;;11.43;10.20;;;;;;;;;;5037351;28;24562;-59
2022/02/14 05:43:40;;;;;;;10.00;9.00;;;;;;;;;;5051157;28;24419;-58
2022/02/14 05:46:13;;;;;;;10.63;9.52;;;;;;;;;;5037458;28;24433;-59
2022/02/14 05:48:38;;;;;;;11.55;10.35;;;;;;;;;;5045733;28;24510;-58
2022/02/14 05:51:03;;;;;;;12.13;9.93;;;;;;;;;;5025616;28;24582;-58
2022/02/14 05:53:28;;;;;;;12.55;10.50;;;;;;;;;;5029836;28;24443;-57
2022/02/14 05:55:54;;;;;;;10.90;9.80;;;;;;;;;;5038403;28;24430;-59
2022/02/14 05:58:19;;;;;;;10.40;9.40;;;;;;;;;;5035204;28;24465;-58
2022/02/14 06:00:44;;;;;;;11.07;9.97;;;;;;;;;;5033151;28;24500;-58
2022/02/14 06:03:09;;;;;;;12.65;10.80;;;;;;;;;;5030299;28;25036;-58
2022/02/14 06:05:35;;;;;;;11.98;10.25;;;;;;;;;;5031163;28;24886;-58
2022/02/14 06:08:00;;;;;;;10.88;9.77;;;;;;;;;;5027040;28;24420;-58
2022/02/14 06:10:25;;;;;;;11.70;9.98;;;;;;;;;;5037326;28;24961;-58
2022/02/14 06:12:52;;;;;;;10.93;9.82;;;;;;;;;;5029756;28;24400;-58
2022/02/14 06:15:17;;;;;;;10.60;9.60;;;;;;;;;;5032920;28;24569;-58
2022/02/14 06:17:43;;;;;;;12.40;10.13;;;;;;;;;;5036391;28;24530;-58
2022/02/14 06:20:08;;;;;;;11.98;10.77;;;;;;;;;;5039970;28;24407;-58
2022/02/14 06:22:33;;;;;;;12.37;10.07;;;;;;;;;;5039823;28;25344;-58
2022/02/14 06:24:58;;;;;;;12.37;11.07;;;;;;;;;;5023645;28;24416;-59
2022/02/14 06:27:24;;;;;;;11.88;10.43;;;;;;;;;;5024272;28;24453;-59
2022/02/14 06:29:49;;;;;;;11.83;9.80;;;;;;;;;;5034988;28;24467;-58
2022/02/14 06:32:14;;;;;;;11.30;10.20;;;;;;;;;;5032634;28;25115;-57
2022/02/14 06:34:39;;;;;;;11.00;9.80;;;;;;;;;;5025345;28;24420;-57
2022/02/14 06:37:05;;;;;;;11.40;10.20;;;;;;;;;;5030022;28;24423;-59
2022/02/14 06:39:30;;;;;;;11.98;10.73;;;;;;;;;;5027980;28;24444;-58
2022/02/14 06:41:58;;;;;;;12.03;10.00;;;;;;;;;;5026864;28;24590;-59
2022/02/14 06:44:23;;;;;;;11.73;10.23;;;;;;;;;;5030691;28;24415;-57
2022/02/14 06:46:49;;;;;;;11.80;10.45;;;;;;;;;;5039262;28;24731;-57
2022/02/14 06:49:14;;;;;;;11.65;10.45;;;;;;;;;;5024873;28;24403;-58
2022/02/14 06:51:39;;;;;;;10.65;9.55;;;;;;;;;;5023871;28;24419;-58
2022/02/14 06:54:05;;;;;;;11.27;10.17;;;;;;;;;;5030698;28;24460;-59
2022/02/14 06:56:30;;;;;;;11.70;9.80;;;;;;;;;;5027061;28;24434;-58
2022/02/14 06:58:55;;;;;;;13.70;11.07;;;;;;;;;;5030451;28;24500;-57
2022/02/14 07:01:20;;;;;;;11.50;10.30;;;;;;;;;;5028708;28;24485;-58
2022/02/14 07:03:46;;;;;;;11.90;10.70;;;;;;;;;;5034677;28;24447;-57
2022/02/14 07:06:11;;;;;;;12.20;10.90;;;;;;;;;;5032234;28;24518;-58
2022/02/14 07:08:36;;;;;;;13.23;9.70;;;;;;;;;;5026647;28;24970;-58
2022/02/14 07:11:01;;;;;;;12.07;10.47;;;;;;;;;;5032014;28;24426;-59
2022/02/14 07:13:27;;;;;;;11.30;10.10;;;;;;;;;;5026599;28;24423;-58
2022/02/14 07:15:52;;;;;;;11.97;10.70;;;;;;;;;;5032041;28;24427;-60
2022/02/14 07:18:17;;;;;;;12.05;10.40;;;;;;;;;;5040906;28;24875;-59
2022/02/14 07:20:42;;;;;;;12.70;11.00;;;;;;;;;;5038149;28;24456;-60
2022/02/14 07:23:08;;;;;;;11.87;10.77;;;;;;;;;;5033608;28;24858;-59
2022/02/14 07:25:33;;;;;;;12.53;11.23;;;;;;;;;;5036749;28;24502;-59
2022/02/14 07:27:58;;;;;;;14.60;10.70;;;;;;;;;;5046249;28;24414;-58
2022/02/14 07:30:24;;;;;;;12.07;10.57;;;;;;;;;;5046314;28;24402;-59
2022/02/14 07:32:49;;;;;;;11.73;10.63;;;;;;;;;;5044300;28;24447;-58
2022/02/14 07:35:14;;;;;;;12.40;10.37;;;;;;;;;;5028528;28;25024;-59
2022/02/14 07:37:40;;;;;;;11.77;10.68;;;;;;;;;;5026241;28;24428;-59
2022/02/14 07:40:06;;;;;;;11.13;9.88;;;;;;;;;;5028186;28;24499;-60
2022/02/14 07:42:31;;;;;;;11.63;10.30;;;;;;;;;;5046081;28;24850;-59
2022/02/14 07:44:57;;;;;;;15.33;10.87;;;;;;;;;;5029373;28;24601;-58
2022/02/14 07:47:23;;;;;;;11.90;10.70;;;;;;;;;;5035823;28;24499;-58
2022/02/14 07:49:48;;;;;;;11.10;9.98;;;;;;;;;;5045463;28;24519;-57
2022/02/14 07:52:14;;;;;;;12.30;11.00;;;;;;;;;;5026315;28;24832;-58
2022/02/14 07:54:39;;;;;;;11.90;10.70;;;;;;;;;;5032504;28;25042;-58
2022/02/14 07:57:04;;;;;;;12.77;10.80;;;;;;;;;;5045602;28;24427;-57
2022/02/14 07:59:29;;;;;;;12.48;11.18;;;;;;;;;;5046413;28;24399;-57
2022/02/14 08:01:54;;;;;;;11.57;10.32;;;;;;;;;;5043802;28;24435;-58
2022/02/14 08:04:20;;;;;;;13.07;11.17;;;;;;;;;;5042547;28;24585;-58
2022/02/14 08:06:45;;;;;;;12.35;11.07;;;;;;;;;;5024112;28;24427;-58
2022/02/14 08:09:13;;;;;;;11.63;10.43;;;;;;;;;;5025574;28;24503;-57
2022/02/14 08:11:39;;;;;;;12.15;10.85;;;;;;;;;;5024436;28;24423;-58
2022/02/14 08:14:04;;;;;;;11.93;10.65;;;;;;;;;;5024044;28;24419;-58
2022/02/14 08:16:31;;;;;;;12.50;11.20;;;;;;;;;;5024528;28;24774;-58
2022/02/14 08:18:56;;;;;;;12.50;10.67;;;;;;;;;;5025569;28;24515;-58
2022/02/14 08:21:23;;;;;;;11.70;10.50;;;;;;;;;;5027120;28;24455;-58
2022/02/14 08:23:48;;;;;;;12.00;10.80;;;;;;;;;;5029690;28;24396;-58
2022/02/14 08:26:13;;;;;;;12.57;10.98;;;;;;;;;;5037506;28;24477;-57
2022/02/14 08:28:38;;;;;;;14.57;10.70;;;;;;;;;;5047472;28;24476;-57
2022/02/14 08:31:04;;;;;;;11.93;10.73;;;;;;;;;;5046386;28;24421;-58
2022/02/14 08:33:30;;;;;;;11.83;10.63;;;;;;;;;;5049238;28;24810;-57
2022/02/14 08:35:55;;;;;;;12.25;10.95;;;;;;;;;;5035829;28;24415;-58
2022/02/14 08:38:20;;;;;;;11.50;10.37;;;;;;;;;;5049221;28;24468;-58
2022/02/14 08:40:45;;;;;;;11.30;10.10;;;;;;;;;;5030913;28;25009;-58
2022/02/14 08:43:10;;;;;;;11.82;10.52;;;;;;;;;;5028649;28;24914;-58
2022/02/14 08:45:36;;;;;;;10.60;9.30;;;;;;;;;;5028471;28;25028;-57
2022/02/14 08:48:01;;;;;;;11.77;10.33;;;;;;;;;;5028642;28;25000;-58
2022/02/14 08:50:29;;;;;;;13.23;10.63;;;;;;;;;;5028148;28;24840;-58
2022/02/14 08:52:54;;;;;;;12.10;10.55;;;;;;;;;;5025312;28;24435;-58
2022/02/14 08:55:19;;;;;;;11.63;10.47;;;;;;;;;;5028590;28;24549;-58
2022/02/14 08:57:45;;;;;;;12.50;10.18;;;;;;;;;;5030260;28;24416;-58
2022/02/14 09:00:10;;;;;;;12.13;10.37;;;;;;;;;;5028384;28;24411;-58
2022/02/14 09:02:36;;;;;;;11.80;10.60;;;;;;;;;;5028637;28;24495;-58
2022/02/14 09:05:01;;;;;;;12.10;10.00;;;;;;;;;;5028945;28;24931;-57
2022/02/14 09:07:26;;;;;;;11.88;10.68;;;;;;;;;;5028551;28;24552;-58
2022/02/14 09:09:51;;;;;;;11.10;9.90;;;;;;;;;;5028403;28;25044;-59
2022/02/14 09:12:17;;;;;;;10.93;9.60;;;;;;;;;;5029483;28;24420;-57
2022/02/14 09:14:42;;;;;;;11.55;10.10;;;;;;;;;;5028645;28;24396;-58
2022/02/14 09:17:08;;;;;;;10.67;9.57;;;;;;;;;;5028549;28;24423;-58
2022/02/14 09:19:33;;;;;;;10.75;9.65;;;;;;;;;;5028633;28;24388;-58
2022/02/14 09:21:59;;;;;;;13.48;10.30;;;;;;;;;;5028796;28;24451;-58
2022/02/14 09:24:24;;;;;;;10.48;9.52;;;;;;;;;;5028718;28;24449;-59
2022/02/14 09:26:49;;;;;;;13.00;10.00;;;;;;;;;;5028175;28;24399;-58
2022/02/14 09:29:15;;;;;;;11.77;10.57;;;;;;;;;;5027482;28;24428;-59
2022/02/14 09:31:40;;;;;;;11.90;10.20;;;;;;;;;;5029107;28;24469;-59
2022/02/14 09:34:06;;;;;;;11.88;9.93;;;;;;;;;;5027962;28;24577;-58
2022/02/14 09:36:31;;;;;;;12.95;10.40;;;;;;;;;;5028405;28;24407;-59
2022/02/14 09:38:57;;;;;;;12.20;10.60;;;;;;;;;;5042585;28;25099;-58
2022/02/14 09:41:23;;;;;;;11.50;10.30;;;;;;;;;;5047791;28;24416;-60
2022/02/14 09:43:49;;;;;;;12.75;10.50;;;;;;;;;;5030622;28;24417;-59
2022/02/14 09:46:14;;;;;;;10.80;9.70;;;;;;;;;;5027660;28;24855;-59
2022/02/14 09:48:41;;;;;;;11.13;9.80;;;;;;;;;;5028127;28;24800;-59
2022/02/14 09:51:06;;;;;;;11.50;10.07;;;;;;;;;;5027545;28;24465;-59
2022/02/14 09:53:31;;;;;;;10.80;9.70;;;;;;;;;;5028923;28;24989;-59
2022/02/14 09:55:56;;;;;;;12.10;9.80;;;;;;;;;;5027360;28;24430;-59
2022/02/14 09:58:22;;;;;;;11.83;10.17;;;;;;;;;;5027956;28;24418;-58
2022/02/14 10:00:47;;;;;;;10.80;9.70;;;;;;;;;;5027353;28;24802;-59
2022/02/14 10:03:17;;;;;;;10.40;9.30;;;;;;;;;;5028385;28;24473;-59
2022/02/14 10:05:44;;;;;;;12.38;10.10;;;;;;;;;;5027676;28;24980;-58
2022/02/14 10:08:09;;;;;;;10.70;9.60;;;;;;;;;;5027231;28;24495;-59
2022/02/14 10:10:36;;;;;;;11.00;9.85;;;;;;;;;;5027040;28;24475;-58
2022/02/14 10:13:01;;;;;;;14.15;10.20;;;;;;;;;;5027310;28;24392;-59
2022/02/14 10:15:27;;;;;;;11.33;9.97;;;;;;;;;;5028498;28;24482;-58
2022/02/14 10:17:53;;;;;;;12.00;10.00;;;;;;;;;;5027058;28;24396;-58
2022/02/14 10:20:22;;;;;;;11.05;9.95;;;;;;;;;;5026945;28;24388;-58
2022/02/14 10:22:55;;;;;;;11.45;9.60;;;;;;;;;;5024973;28;24447;-58
2022/02/14 10:25:39;;;;;;;11.40;10.20;;;;;;;;;;5028513;28;24412;-59
2022/02/14 10:28:29;;;;;;;11.15;9.15;;;;;;;;;;5027164;28;24448;-59
2022/02/14 10:31:04;;;;;;;11.32;10.13;;;;;;;;;;5026877;28;24384;-58
2022/02/14 10:33:48;;;;;;;10.90;9.48;;;;;;;;;;5027132;28;24495;-58
2022/02/14 10:36:21;;;;;;;10.13;9.13;;;;;;;;;;5031596;28;24411;-59
2022/02/14 10:38:47;;;;;;;10.23;9.23;;;;;;;;;;5045250;28;24817;-59
2022/02/14 10:41:12;;;;;;;11.73;9.50;;;;;;;;;;5045646;28;24410;-58
2022/02/14 10:43:38;;;;;;;11.57;9.00;;;;;;;;;;5046252;28;24477;-58
2022/02/14 10:46:03;;;;;;;10.10;9.00;;;;;;;;;;5046900;28;24507;-58
2022/02/14 10:48:37;;;;;;;9.90;8.73;;;;;;;;;;5046477;28;24521;-60
2022/02/14 10:51:02;;;;;;;10.90;9.32;;;;;;;;;;5042455;28;25080;-58
2022/02/14 10:53:27;;;;;;;10.73;9.37;;;;;;;;;;5044850;28;24846;-59
2022/02/14 10:55:56;;;;;;;11.10;9.43;;;;;;;;;;5046559;28;24399;-59
2022/02/14 10:58:26;;;;;;;10.20;9.10;;;;;;;;;;5042163;28;24430;-57
2022/02/14 11:00:51;;;;;;;11.00;9.20;;;;;;;;;;5024317;28;24431;-58
2022/02/14 11:03:17;;;;;;;10.53;9.43;;;;;;;;;;5025772;28;24423;-58
2022/02/14 11:05:43;;;;;;;10.13;9.10;;;;;;;;;;5026178;28;25003;-59
2022/02/14 11:08:09;;;;;;;10.20;8.50;;;;;;;;;;5025514;28;24614;-59
2022/02/14 11:10:35;;;;;;;9.25;8.32;;;;;;;;;;5024961;28;24390;-59
2022/02/14 11:13:01;;;;;;;10.68;9.10;;;;;;;;;;5024051;28;24427;-59
2022/02/14 11:15:27;;;;;;;9.40;8.50;;;;;;;;;;5027379;28;24404;-59
2022/02/14 11:17:54;;;;;;;10.40;8.90;;;;;;;;;;5028224;28;24481;-60
2022/02/14 11:20:19;;;;;;;10.02;9.02;;;;;;;;;;5046205;28;24395;-58
2022/02/14 11:22:46;;;;;;;9.93;8.93;;;;;;;;;;5046109;28;24434;-58
2022/02/14 11:25:20;;;;;;;10.10;9.10;;;;;;;;;;5044545;28;25052;-59
2022/02/14 11:28:01;;;;;;;10.80;9.30;;;;;;;;;;5046463;28;24428;-59
2022/02/14 11:30:27;;;;;;;9.17;8.27;;;;;;;;;;5045904;28;24441;-59
2022/02/14 11:33:06;;;;;;;9.45;8.27;;;;;;;;;;5046411;28;24474;-60
2022/02/14 11:35:32;;;;;;;9.38;8.15;;;;;;;;;;5044077;28;24478;-58
2022/02/14 11:37:59;;;;;;;8.63;7.73;;;;;;;;;;5026545;28;25116;-60
2022/02/14 11:40:26;;;;;;;10.25;9.13;;;;;;;;;;5025904;28;24447;-59
2022/02/14 11:43:10;;;;;;;9.80;8.80;;;;;;;;;;5025986;28;24420;-59
2022/02/14 11:45:36;;;;;;;9.30;8.40;;;;;;;;;;5026439;28;24494;-59
2022/02/14 11:48:20;;;;;;;10.10;8.02;;;;;;;;;;5026960;28;25238;-59
2022/02/14 11:50:45;;;;;;;9.05;7.63;;;;;;;;;;5026029;28;24975;-58
2022/02/14 11:53:29;;;;;;;9.00;8.10;;;;;;;;;;5028174;28;24405;-59
2022/02/14 11:56:14;;;;;;;9.45;8.65;;;;;;;;;;5029657;28;24442;-59
2022/02/14 11:58:58;;;;;;;9.88;8.73;;;;;;;;;;5045888;28;24740;-58
2022/02/14 12:01:23;;;;;;;10.30;9.30;;;;;;;;;;5031022;28;24435;-58
2022/02/14 12:03:52;;;;;;;9.43;8.60;;;;;;;;;;5031492;28;24430;-58
2022/02/14 12:06:18;;;;;;;9.88;8.80;;;;;;;;;;5029628;28;24408;-58
2022/02/14 12:08:56;;;;;;;10.50;8.60;;;;;;;;;;5029383;28;24996;-59
2022/02/14 12:11:41;;;;;;;9.10;8.20;;;;;;;;;;5030615;28;24420;-59
2022/02/14 12:14:15;;;;;;;9.10;8.30;;;;;;;;;;5030458;28;24537;-60
2022/02/14 12:22:27;;;;;;;9.20;8.20;;;;;;;;;;5047071;28;24520;-60
2022/02/14 12:24:56;;;;;;;10.97;9.87;;;;;;;;;;5038341;28;24949;-59
2022/02/14 12:27:22;;;;;;;10.30;9.30;;;;;;;;;;5040654;28;24550;-59
2022/02/14 12:29:49;;;;;;;10.48;9.38;;;;;;;;;;5031060;28;24429;-58
2022/02/14 12:32:16;;;;;;;10.15;9.15;;;;;;;;;;5029475;28;24962;-58
2022/02/14 12:34:42;;;;;;;11.55;10.45;;;;;;;;;;5031632;28;24829;-59
2022/02/14 12:37:09;;;;;;;11.45;9.52;;;;;;;;;;5029500;28;25015;-58
2022/02/14 12:39:39;;;;;;;10.13;9.23;;;;;;;;;;5031395;28;24448;-59
2022/02/14 12:42:07;;;;;;;13.70;10.80;;;;;;;;;;5035380;28;24431;-58
2022/02/14 12:44:32;;;;;;;11.05;9.95;;;;;;;;;;5029185;28;24458;-58
2022/02/14 12:46:57;;;;;;;12.57;11.27;;;;;;;;;;5036299;28;24400;-59
2022/02/14 12:49:23;;;;;;;12.33;11.03;;;;;;;;;;5042747;28;25051;-59
2022/02/14 12:51:48;;;;;;;12.52;10.38;;;;;;;;;;5042014;28;24423;-59
2022/02/14 12:54:13;;;;;;;11.63;10.53;;;;;;;;;;5039504;28;24411;-59
2022/02/14 12:56:40;;;;;;;12.47;11.00;;;;;;;;;;5041812;28;24420;-59
2022/02/14 12:59:07;;;;;;;12.73;11.07;;;;;;;;;;5028668;28;24412;-58
2022/02/14 13:01:33;;;;;;;11.68;10.48;;;;;;;;;;5028415;28;24420;-58
2022/02/14 13:03:59;;;;;;;12.68;11.48;;;;;;;;;;5027416;28;24450;-58
2022/02/14 13:06:55;;;;;;;12.60;11.30;;;;;;;;;;5028379;28;24483;-58
2022/02/14 13:09:21;;;;;;;13.18;11.80;;;;;;;;;;5019519;28;24442;-59
2022/02/14 13:11:48;;;;;;;12.80;11.50;;;;;;;;;;5027959;28;24408;-59
2022/02/14 13:14:26;;;;;;;13.57;12.18;;;;;;;;;;5028078;28;24487;-58
2022/02/14 13:16:52;;;;;;;13.43;12.02;;;;;;;;;;5041564;28;24426;-59
2022/02/14 13:19:17;;;;;;;13.37;11.73;;;;;;;;;;5055383;28;24434;-59
2022/02/14 13:21:43;;;;;;;14.98;12.30;;;;;;;;;;5048803;28;24466;-58
2022/02/14 13:24:17;;;;;;;13.90;12.20;;;;;;;;;;5037496;28;25052;-59
2022/02/14 13:26:42;;;;;;;14.18;12.70;;;;;;;;;;5027664;28;24489;-60
2022/02/14 13:29:07;;;;;;;15.03;13.23;;;;;;;;;;5027625;28;24408;-59
2022/02/14 13:31:32;;;;;;;15.73;14.02;;;;;;;;;;5031918;28;24455;-57
2022/02/14 13:34:01;;;;;;;14.20;12.75;;;;;;;;;;5045412;28;24859;-59
2022/02/14 13:36:26;;;;;;;13.95;12.30;;;;;;;;;;5047575;28;24956;-59
2022/02/14 13:38:52;;;;;;;14.17;12.77;;;;;;;;;;5061453;28;24570;-59
2022/02/14 13:41:27;;;;;;;13.63;12.23;;;;;;;;;;5067146;28;24502;-59
2022/02/14 13:43:52;;;;;;;13.88;12.57;;;;;;;;;;5067328;28;24403;-59
2022/02/14 13:46:25;;;;;;;13.87;12.10;;;;;;;;;;5067249;28;24757;-58
2022/02/14 13:48:50;;;;;;;14.88;13.38;;;;;;;;;;5067589;28;24389;-59
2022/02/14 13:51:26;;;;;;;15.20;13.60;;;;;;;;;;5051486;28;24413;-59
2022/02/14 13:53:53;;;;;;;13.55;12.15;;;;;;;;;;5026448;28;24937;-61
2022/02/14 13:56:19;;;;;;;15.85;13.73;;;;;;;;;;5025535;28;24511;-59
2022/02/14 13:58:50;;;;;;;15.18;13.15;;;;;;;;;;5027614;28;24415;-60
2022/02/14 14:01:26;;;;;;;17.20;12.98;;;;;;;;;;5031117;28;24966;-59
2022/02/14 14:03:52;;;;;;;14.57;13.27;;;;;;;;;;5034719;28;24551;-60
2022/02/14 14:06:18;;;;;;;14.73;13.23;;;;;;;;;;5031601;28;24532;-60
2022/02/14 14:08:43;;;;;;;15.32;13.45;;;;;;;;;;5029662;28;24487;-59
2022/02/14 14:11:08;;;;;;;14.05;12.65;;;;;;;;;;5046908;28;24983;-59
2022/02/14 14:13:38;;;;;;;14.25;12.75;;;;;;;;;;5047018;28;24492;-59
2022/02/14 14:16:03;;;;;;;14.83;13.33;;;;;;;;;;5033927;28;24510;-60
2022/02/14 14:18:28;;;;;;;14.97;13.47;;;;;;;;;;5042550;28;24861;-59
2022/02/14 14:21:02;;;;;;;15.32;13.75;;;;;;;;;;5035578;28;24412;-60
2022/02/14 14:23:27;;;;;;;16.40;14.80;;;;;;;;;;5035800;28;24423;-60
2022/02/14 14:25:52;;;;;;;17.20;13.97;;;;;;;;;;5028437;28;24487;-60